sensor_id;sensor_type;location;lat;lon;timestamp;P1;durP1;ratioP1;P2;durP2;ratioP2
79229;SDS011;68663;49.122;17.544;2023-12-20T00:01:31;184.23;;;152.88;;
79229;SDS011;68663;49.122;17.544;2023-12-20T00:03:57;189.68;;;152.77;;
79229;SDS011;68663;49.122;17.544;2023-12-20T00:06:22;187.67;;;152.30;;
79229;SDS011;68663;49.122;17.544;2023-12-20T00:08:48;183.35;;;151.73;;
79229;SDS011;68663;49.122;17.544;2023-12-20T00:11:13;181.73;;;147.77;;
79229;SDS011;68663;49.122;17.544;2023-12-20T00:13:38;178.17;;;143.57;;
79229;SDS011;68663;49.122;17.544;2023-12-20T00:16:04;176.05;;;143.70;;
79229;SDS011;68663;49.122;17.544;2023-12-20T00:18:29;177.55;;;147.20;;
79229;SDS011;68663;49.122;17.544;2023-12-20T00:20:55;180.17;;;147.67;;
79229;SDS011;68663;49.122;17.544;2023-12-20T00:23:20;174.68;;;146.43;;
79229;SDS011;68663;49.122;17.544;2023-12-20T00:25:48;173.27;;;142.63;;
79229;SDS011;68663;49.122;17.544;2023-12-20T00:28:13;175.55;;;142.63;;
79229;SDS011;68663;49.122;17.544;2023-12-20T00:30:39;166.47;;;138.53;;
79229;SDS011;68663;49.122;17.544;2023-12-20T00:33:04;167.83;;;140.17;;
79229;SDS011;68663;49.122;17.544;2023-12-20T00:35:30;164.93;;;135.50;;
79229;SDS011;68663;49.122;17.544;2023-12-20T00:37:55;164.23;;;137.70;;
79229;SDS011;68663;49.122;17.544;2023-12-20T00:40:20;159.45;;;134.80;;
79229;SDS011;68663;49.122;17.544;2023-12-20T00:42:47;161.70;;;134.20;;
79229;SDS011;68663;49.122;17.544;2023-12-20T00:45:12;161.07;;;133.15;;
79229;SDS011;68663;49.122;17.544;2023-12-20T00:47:39;160.65;;;133.68;;
79229;SDS011;68663;49.122;17.544;2023-12-20T00:50:05;158.73;;;133.40;;
79229;SDS011;68663;49.122;17.544;2023-12-20T00:52:31;151.98;;;128.77;;
79229;SDS011;68663;49.122;17.544;2023-12-20T00:54:56;156.77;;;131.73;;
79229;SDS011;68663;49.122;17.544;2023-12-20T00:57:22;155.10;;;128.90;;
79229;SDS011;68663;49.122;17.544;2023-12-20T00:59:47;152.17;;;130.87;;
79229;SDS011;68663;49.122;17.544;2023-12-20T01:02:12;150.93;;;128.87;;
79229;SDS011;68663;49.122;17.544;2023-12-20T01:04:38;144.55;;;124.22;;
79229;SDS011;68663;49.122;17.544;2023-12-20T01:07:03;145.18;;;122.22;;
79229;SDS011;68663;49.122;17.544;2023-12-20T01:09:29;144.68;;;124.32;;
79229;SDS011;68663;49.122;17.544;2023-12-20T01:11:54;147.07;;;123.38;;
79229;SDS011;68663;49.122;17.544;2023-12-20T01:14:20;146.52;;;123.15;;
79229;SDS011;68663;49.122;17.544;2023-12-20T01:16:45;144.90;;;120.35;;
79229;SDS011;68663;49.122;17.544;2023-12-20T01:19:11;141.02;;;120.78;;
79229;SDS011;68663;49.122;17.544;2023-12-20T01:21:36;140.00;;;121.82;;
79229;SDS011;68663;49.122;17.544;2023-12-20T01:24:02;135.73;;;117.30;;
79229;SDS011;68663;49.122;17.544;2023-12-20T01:26:27;137.50;;;117.50;;
79229;SDS011;68663;49.122;17.544;2023-12-20T01:28:53;140.97;;;119.93;;
79229;SDS011;68663;49.122;17.544;2023-12-20T01:31:18;141.25;;;118.68;;
79229;SDS011;68663;49.122;17.544;2023-12-20T01:33:44;138.57;;;116.50;;
79229;SDS011;68663;49.122;17.544;2023-12-20T01:36:09;133.03;;;113.33;;
79229;SDS011;68663;49.122;17.544;2023-12-20T01:38:34;135.57;;;114.07;;
79229;SDS011;68663;49.122;17.544;2023-12-20T01:41:00;135.35;;;114.75;;
79229;SDS011;68663;49.122;17.544;2023-12-20T01:43:25;129.73;;;106.50;;
79229;SDS011;68663;49.122;17.544;2023-12-20T01:45:51;120.65;;;103.47;;
79229;SDS011;68663;49.122;17.544;2023-12-20T01:48:16;122.80;;;104.82;;
79229;SDS011;68663;49.122;17.544;2023-12-20T01:50:43;120.47;;;103.80;;
79229;SDS011;68663;49.122;17.544;2023-12-20T01:53:09;126.63;;;104.38;;
79229;SDS011;68663;49.122;17.544;2023-12-20T01:55:38;124.40;;;106.10;;
79229;SDS011;68663;49.122;17.544;2023-12-20T01:58:05;118.13;;;102.35;;
79229;SDS011;68663;49.122;17.544;2023-12-20T02:00:32;122.70;;;101.18;;
79229;SDS011;68663;49.122;17.544;2023-12-20T02:02:59;119.70;;;102.55;;
79229;SDS011;68663;49.122;17.544;2023-12-20T02:05:26;115.75;;;101.45;;
79229;SDS011;68663;49.122;17.544;2023-12-20T02:07:53;118.57;;;101.00;;
79229;SDS011;68663;49.122;17.544;2023-12-20T02:10:18;118.13;;;101.45;;
79229;SDS011;68663;49.122;17.544;2023-12-20T02:12:44;116.25;;;99.65;;
79229;SDS011;68663;49.122;17.544;2023-12-20T02:15:09;115.03;;;99.60;;
79229;SDS011;68663;49.122;17.544;2023-12-20T02:17:35;114.00;;;98.32;;
79229;SDS011;68663;49.122;17.544;2023-12-20T02:20:01;113.45;;;95.65;;
79229;SDS011;68663;49.122;17.544;2023-12-20T02:22:27;112.63;;;96.18;;
79229;SDS011;68663;49.122;17.544;2023-12-20T02:24:53;110.47;;;96.43;;
79229;SDS011;68663;49.122;17.544;2023-12-20T02:27:18;110.80;;;96.53;;
79229;SDS011;68663;49.122;17.544;2023-12-20T02:29:45;107.60;;;94.47;;
79229;SDS011;68663;49.122;17.544;2023-12-20T02:32:13;107.38;;;92.40;;
79229;SDS011;68663;49.122;17.544;2023-12-20T02:34:38;105.27;;;91.47;;
79229;SDS011;68663;49.122;17.544;2023-12-20T02:37:03;105.27;;;90.57;;
79229;SDS011;68663;49.122;17.544;2023-12-20T02:39:29;104.90;;;90.55;;
79229;SDS011;68663;49.122;17.544;2023-12-20T02:41:55;101.75;;;88.78;;
79229;SDS011;68663;49.122;17.544;2023-12-20T02:44:20;105.22;;;90.53;;
79229;SDS011;68663;49.122;17.544;2023-12-20T02:46:46;103.57;;;89.05;;
79229;SDS011;68663;49.122;17.544;2023-12-20T02:49:11;98.10;;;86.68;;
79229;SDS011;68663;49.122;17.544;2023-12-20T02:51:36;101.07;;;89.50;;
79229;SDS011;68663;49.122;17.544;2023-12-20T02:54:03;101.75;;;85.85;;
79229;SDS011;68663;49.122;17.544;2023-12-20T02:56:29;101.32;;;87.47;;
79229;SDS011;68663;49.122;17.544;2023-12-20T02:58:55;99.97;;;87.70;;
79229;SDS011;68663;49.122;17.544;2023-12-20T03:01:24;95.57;;;82.65;;
79229;SDS011;68663;49.122;17.544;2023-12-20T03:03:50;97.63;;;86.03;;
79229;SDS011;68663;49.122;17.544;2023-12-20T03:06:16;90.57;;;80.30;;
79229;SDS011;68663;49.122;17.544;2023-12-20T03:08:43;94.88;;;83.68;;
79229;SDS011;68663;49.122;17.544;2023-12-20T03:11:09;96.95;;;81.10;;
79229;SDS011;68663;49.122;17.544;2023-12-20T03:13:34;90.70;;;78.03;;
79229;SDS011;68663;49.122;17.544;2023-12-20T03:16:07;96.45;;;83.63;;
79229;SDS011;68663;49.122;17.544;2023-12-20T03:18:33;89.40;;;79.30;;
79229;SDS011;68663;49.122;17.544;2023-12-20T03:20:59;91.17;;;78.53;;
79229;SDS011;68663;49.122;17.544;2023-12-20T03:23:24;89.83;;;79.30;;
79229;SDS011;68663;49.122;17.544;2023-12-20T03:25:51;90.97;;;79.63;;
79229;SDS011;68663;49.122;17.544;2023-12-20T03:28:16;94.63;;;81.45;;
79229;SDS011;68663;49.122;17.544;2023-12-20T03:30:42;93.23;;;80.10;;
79229;SDS011;68663;49.122;17.544;2023-12-20T03:33:07;93.50;;;80.13;;
79229;SDS011;68663;49.122;17.544;2023-12-20T03:35:33;87.38;;;77.40;;
79229;SDS011;68663;49.122;17.544;2023-12-20T03:37:58;86.33;;;75.33;;
79229;SDS011;68663;49.122;17.544;2023-12-20T03:40:25;89.18;;;79.07;;
79229;SDS011;68663;49.122;17.544;2023-12-20T03:42:50;83.07;;;72.75;;
79229;SDS011;68663;49.122;17.544;2023-12-20T03:45:16;84.03;;;73.55;;
79229;SDS011;68663;49.122;17.544;2023-12-20T03:47:42;85.60;;;75.75;;
79229;SDS011;68663;49.122;17.544;2023-12-20T03:50:07;83.17;;;72.47;;
79229;SDS011;68663;49.122;17.544;2023-12-20T03:52:32;83.20;;;72.03;;
79229;SDS011;68663;49.122;17.544;2023-12-20T03:54:58;80.13;;;71.32;;
79229;SDS011;68663;49.122;17.544;2023-12-20T03:57:23;78.63;;;69.37;;
79229;SDS011;68663;49.122;17.544;2023-12-20T03:59:49;81.03;;;72.07;;
79229;SDS011;68663;49.122;17.544;2023-12-20T04:02:14;87.65;;;72.93;;
79229;SDS011;68663;49.122;17.544;2023-12-20T04:04:40;82.82;;;72.18;;
79229;SDS011;68663;49.122;17.544;2023-12-20T04:07:06;77.75;;;69.03;;
79229;SDS011;68663;49.122;17.544;2023-12-20T04:09:31;79.95;;;71.15;;
79229;SDS011;68663;49.122;17.544;2023-12-20T04:11:56;78.33;;;68.43;;
79229;SDS011;68663;49.122;17.544;2023-12-20T04:14:22;80.18;;;69.38;;
79229;SDS011;68663;49.122;17.544;2023-12-20T04:16:48;74.93;;;65.90;;
79229;SDS011;68663;49.122;17.544;2023-12-20T04:19:13;78.28;;;67.25;;
79229;SDS011;68663;49.122;17.544;2023-12-20T04:21:39;75.38;;;66.07;;
79229;SDS011;68663;49.122;17.544;2023-12-20T04:24:04;76.10;;;66.85;;
79229;SDS011;68663;49.122;17.544;2023-12-20T04:26:30;76.47;;;67.80;;
79229;SDS011;68663;49.122;17.544;2023-12-20T04:28:55;73.43;;;64.57;;
79229;SDS011;68663;49.122;17.544;2023-12-20T04:31:20;75.85;;;64.53;;
79229;SDS011;68663;49.122;17.544;2023-12-20T04:33:46;74.32;;;64.78;;
79229;SDS011;68663;49.122;17.544;2023-12-20T04:36:11;73.38;;;65.53;;
79229;SDS011;68663;49.122;17.544;2023-12-20T04:38:37;75.20;;;66.93;;
79229;SDS011;68663;49.122;17.544;2023-12-20T04:41:02;84.25;;;75.03;;
79229;SDS011;68663;49.122;17.544;2023-12-20T04:43:28;81.45;;;72.03;;
79229;SDS011;68663;49.122;17.544;2023-12-20T04:45:54;80.50;;;70.80;;
79229;SDS011;68663;49.122;17.544;2023-12-20T04:48:20;81.93;;;72.13;;
79229;SDS011;68663;49.122;17.544;2023-12-20T04:50:45;80.80;;;70.47;;
79229;SDS011;68663;49.122;17.544;2023-12-20T04:53:11;78.50;;;69.95;;
79229;SDS011;68663;49.122;17.544;2023-12-20T04:55:36;78.15;;;68.47;;
79229;SDS011;68663;49.122;17.544;2023-12-20T04:58:02;75.77;;;67.47;;
79229;SDS011;68663;49.122;17.544;2023-12-20T05:00:27;79.03;;;70.05;;
79229;SDS011;68663;49.122;17.544;2023-12-20T05:02:52;83.33;;;70.57;;
79229;SDS011;68663;49.122;17.544;2023-12-20T05:05:18;91.67;;;71.37;;
79229;SDS011;68663;49.122;17.544;2023-12-20T05:07:43;92.90;;;69.28;;
79229;SDS011;68663;49.122;17.544;2023-12-20T05:10:09;100.70;;;69.90;;
79229;SDS011;68663;49.122;17.544;2023-12-20T05:12:35;103.30;;;74.45;;
79229;SDS011;68663;49.122;17.544;2023-12-20T05:15:00;102.13;;;72.80;;
79229;SDS011;68663;49.122;17.544;2023-12-20T05:17:26;94.60;;;69.05;;
79229;SDS011;68663;49.122;17.544;2023-12-20T05:19:51;92.88;;;67.97;;
79229;SDS011;68663;49.122;17.544;2023-12-20T05:22:17;97.97;;;70.40;;
79229;SDS011;68663;49.122;17.544;2023-12-20T05:24:43;87.30;;;67.60;;
79229;SDS011;68663;49.122;17.544;2023-12-20T05:27:09;96.93;;;66.53;;
79229;SDS011;68663;49.122;17.544;2023-12-20T05:29:34;92.00;;;65.47;;
79229;SDS011;68663;49.122;17.544;2023-12-20T05:31:59;97.13;;;68.68;;
79229;SDS011;68663;49.122;17.544;2023-12-20T05:34:25;92.57;;;66.15;;
79229;SDS011;68663;49.122;17.544;2023-12-20T05:36:50;83.60;;;63.17;;
79229;SDS011;68663;49.122;17.544;2023-12-20T05:39:16;83.55;;;62.30;;
79229;SDS011;68663;49.122;17.544;2023-12-20T05:41:41;86.68;;;63.67;;
79229;SDS011;68663;49.122;17.544;2023-12-20T05:44:07;95.88;;;63.47;;
79229;SDS011;68663;49.122;17.544;2023-12-20T05:46:32;84.10;;;60.90;;
79229;SDS011;68663;49.122;17.544;2023-12-20T05:48:58;87.93;;;61.65;;
79229;SDS011;68663;49.122;17.544;2023-12-20T05:51:23;79.88;;;59.22;;
79229;SDS011;68663;49.122;17.544;2023-12-20T05:53:49;81.30;;;62.08;;
79229;SDS011;68663;49.122;17.544;2023-12-20T05:56:15;79.13;;;59.85;;
79229;SDS011;68663;49.122;17.544;2023-12-20T05:58:40;85.65;;;61.22;;
79229;SDS011;68663;49.122;17.544;2023-12-20T06:01:06;85.32;;;58.67;;
79229;SDS011;68663;49.122;17.544;2023-12-20T06:03:33;74.68;;;58.65;;
79229;SDS011;68663;49.122;17.544;2023-12-20T06:05:59;74.05;;;56.08;;
79229;SDS011;68663;49.122;17.544;2023-12-20T06:08:25;72.40;;;56.30;;
79229;SDS011;68663;49.122;17.544;2023-12-20T06:10:51;68.72;;;57.55;;
79229;SDS011;68663;49.122;17.544;2023-12-20T06:13:16;78.13;;;58.28;;
79229;SDS011;68663;49.122;17.544;2023-12-20T06:15:42;73.35;;;57.22;;
79229;SDS011;68663;49.122;17.544;2023-12-20T06:18:07;72.57;;;56.10;;
79229;SDS011;68663;49.122;17.544;2023-12-20T06:20:33;73.45;;;57.28;;
79229;SDS011;68663;49.122;17.544;2023-12-20T06:22:58;68.25;;;53.83;;
79229;SDS011;68663;49.122;17.544;2023-12-20T06:25:23;73.32;;;56.53;;
79229;SDS011;68663;49.122;17.544;2023-12-20T06:27:49;69.53;;;53.70;;
79229;SDS011;68663;49.122;17.544;2023-12-20T06:30:15;69.55;;;53.28;;
79229;SDS011;68663;49.122;17.544;2023-12-20T06:32:41;65.75;;;53.03;;
79229;SDS011;68663;49.122;17.544;2023-12-20T06:35:07;67.65;;;51.67;;
79229;SDS011;68663;49.122;17.544;2023-12-20T06:37:33;69.15;;;53.88;;
79229;SDS011;68663;49.122;17.544;2023-12-20T06:39:59;65.68;;;51.63;;
79229;SDS011;68663;49.122;17.544;2023-12-20T06:42:24;69.38;;;54.00;;
79229;SDS011;68663;49.122;17.544;2023-12-20T06:44:50;67.20;;;51.73;;
79229;SDS011;68663;49.122;17.544;2023-12-20T06:47:15;65.28;;;50.97;;
79229;SDS011;68663;49.122;17.544;2023-12-20T06:49:40;64.55;;;52.25;;
79229;SDS011;68663;49.122;17.544;2023-12-20T06:52:06;64.47;;;51.92;;
79229;SDS011;68663;49.122;17.544;2023-12-20T06:54:31;63.45;;;49.60;;
79229;SDS011;68663;49.122;17.544;2023-12-20T06:56:59;60.60;;;47.33;;
79229;SDS011;68663;49.122;17.544;2023-12-20T06:59:24;60.15;;;48.83;;
79229;SDS011;68663;49.122;17.544;2023-12-20T07:01:50;60.78;;;48.58;;
79229;SDS011;68663;49.122;17.544;2023-12-20T07:04:16;57.03;;;45.55;;
79229;SDS011;68663;49.122;17.544;2023-12-20T07:06:45;59.80;;;46.10;;
79229;SDS011;68663;49.122;17.544;2023-12-20T07:09:11;59.05;;;47.33;;
79229;SDS011;68663;49.122;17.544;2023-12-20T07:11:38;58.33;;;48.45;;
79229;SDS011;68663;49.122;17.544;2023-12-20T07:14:03;61.53;;;47.58;;
79229;SDS011;68663;49.122;17.544;2023-12-20T07:16:29;60.33;;;46.85;;
79229;SDS011;68663;49.122;17.544;2023-12-20T07:18:54;54.92;;;45.65;;
79229;SDS011;68663;49.122;17.544;2023-12-20T07:21:21;58.67;;;45.22;;
79229;SDS011;68663;49.122;17.544;2023-12-20T07:23:46;56.50;;;44.65;;
79229;SDS011;68663;49.122;17.544;2023-12-20T07:26:12;50.70;;;41.83;;
79229;SDS011;68663;49.122;17.544;2023-12-20T07:28:37;55.60;;;43.75;;
79229;SDS011;68663;49.122;17.544;2023-12-20T07:31:03;58.28;;;44.47;;
79229;SDS011;68663;49.122;17.544;2023-12-20T07:33:28;54.95;;;42.80;;
79229;SDS011;68663;49.122;17.544;2023-12-20T07:35:54;53.28;;;43.92;;
79229;SDS011;68663;49.122;17.544;2023-12-20T07:38:19;52.43;;;44.17;;
79229;SDS011;68663;49.122;17.544;2023-12-20T07:40:44;52.97;;;44.78;;
79229;SDS011;68663;49.122;17.544;2023-12-20T07:43:10;51.30;;;43.47;;
79229;SDS011;68663;49.122;17.544;2023-12-20T07:45:35;53.65;;;45.15;;
79229;SDS011;68663;49.122;17.544;2023-12-20T07:48:01;54.87;;;42.80;;
79229;SDS011;68663;49.122;17.544;2023-12-20T07:50:26;55.03;;;43.85;;
79229;SDS011;68663;49.122;17.544;2023-12-20T07:52:52;50.15;;;41.60;;
79229;SDS011;68663;49.122;17.544;2023-12-20T07:55:18;48.65;;;40.13;;
79229;SDS011;68663;49.122;17.544;2023-12-20T07:57:43;36.28;;;30.38;;
79229;SDS011;68663;49.122;17.544;2023-12-20T08:00:09;30.90;;;26.03;;
79229;SDS011;68663;49.122;17.544;2023-12-20T08:02:35;31.00;;;24.08;;
79229;SDS011;68663;49.122;17.544;2023-12-20T08:05:00;26.98;;;22.45;;
79229;SDS011;68663;49.122;17.544;2023-12-20T08:07:26;23.40;;;20.48;;
79229;SDS011;68663;49.122;17.544;2023-12-20T08:09:51;21.73;;;18.40;;
79229;SDS011;68663;49.122;17.544;2023-12-20T08:12:18;21.27;;;18.98;;
79229;SDS011;68663;49.122;17.544;2023-12-20T08:14:43;20.55;;;18.38;;
79229;SDS011;68663;49.122;17.544;2023-12-20T08:17:08;19.10;;;17.20;;
79229;SDS011;68663;49.122;17.544;2023-12-20T08:19:34;17.90;;;15.65;;
79229;SDS011;68663;49.122;17.544;2023-12-20T08:21:59;18.05;;;16.25;;
79229;SDS011;68663;49.122;17.544;2023-12-20T08:24:25;17.33;;;15.30;;
79229;SDS011;68663;49.122;17.544;2023-12-20T08:26:50;18.63;;;16.67;;
79229;SDS011;68663;49.122;17.544;2023-12-20T08:29:15;17.23;;;15.27;;
79229;SDS011;68663;49.122;17.544;2023-12-20T08:31:41;18.47;;;16.50;;
79229;SDS011;68663;49.122;17.544;2023-12-20T08:34:06;16.38;;;14.07;;
79229;SDS011;68663;49.122;17.544;2023-12-20T08:36:32;16.38;;;14.13;;
79229;SDS011;68663;49.122;17.544;2023-12-20T08:38:57;16.37;;;14.67;;
79229;SDS011;68663;49.122;17.544;2023-12-20T08:41:22;15.27;;;13.68;;
79229;SDS011;68663;49.122;17.544;2023-12-20T08:43:48;16.08;;;14.30;;
79229;SDS011;68663;49.122;17.544;2023-12-20T08:46:14;15.88;;;14.25;;
79229;SDS011;68663;49.122;17.544;2023-12-20T08:48:40;15.45;;;13.93;;
79229;SDS011;68663;49.122;17.544;2023-12-20T08:51:05;15.90;;;14.30;;
79229;SDS011;68663;49.122;17.544;2023-12-20T08:53:34;19.92;;;14.77;;
79229;SDS011;68663;49.122;17.544;2023-12-20T08:55:59;54.83;;;16.27;;
79229;SDS011;68663;49.122;17.544;2023-12-20T08:58:26;32.47;;;14.32;;
79229;SDS011;68663;49.122;17.544;2023-12-20T09:00:53;29.40;;;14.35;;
79229;SDS011;68663;49.122;17.544;2023-12-20T09:03:18;26.02;;;14.45;;
79229;SDS011;68663;49.122;17.544;2023-12-20T09:05:43;18.63;;;13.60;;
79229;SDS011;68663;49.122;17.544;2023-12-20T09:08:09;19.27;;;13.33;;
79229;SDS011;68663;49.122;17.544;2023-12-20T09:10:35;26.75;;;13.98;;
79229;SDS011;68663;49.122;17.544;2023-12-20T09:13:02;17.67;;;13.50;;
79229;SDS011;68663;49.122;17.544;2023-12-20T09:15:27;21.98;;;13.27;;
79229;SDS011;68663;49.122;17.544;2023-12-20T09:17:55;16.80;;;13.30;;
79229;SDS011;68663;49.122;17.544;2023-12-20T09:20:20;19.30;;;13.57;;
79229;SDS011;68663;49.122;17.544;2023-12-20T09:22:46;15.23;;;13.15;;
79229;SDS011;68663;49.122;17.544;2023-12-20T09:25:12;19.17;;;12.85;;
79229;SDS011;68663;49.122;17.544;2023-12-20T09:27:39;23.15;;;13.00;;
79229;SDS011;68663;49.122;17.544;2023-12-20T09:30:05;16.73;;;13.63;;
79229;SDS011;68663;49.122;17.544;2023-12-20T09:32:31;15.27;;;12.82;;
79229;SDS011;68663;49.122;17.544;2023-12-20T09:34:56;18.27;;;12.45;;
79229;SDS011;68663;49.122;17.544;2023-12-20T09:37:22;15.77;;;12.95;;
79229;SDS011;68663;49.122;17.544;2023-12-20T09:39:51;19.50;;;13.52;;
79229;SDS011;68663;49.122;17.544;2023-12-20T09:42:17;15.25;;;12.60;;
79229;SDS011;68663;49.122;17.544;2023-12-20T09:44:49;15.05;;;12.20;;
79229;SDS011;68663;49.122;17.544;2023-12-20T09:47:15;21.25;;;12.30;;
79229;SDS011;68663;49.122;17.544;2023-12-20T09:49:44;17.23;;;12.27;;
79229;SDS011;68663;49.122;17.544;2023-12-20T09:52:10;15.80;;;12.20;;
79229;SDS011;68663;49.122;17.544;2023-12-20T09:54:38;18.08;;;11.73;;
79229;SDS011;68663;49.122;17.544;2023-12-20T09:57:03;15.43;;;11.55;;
79229;SDS011;68663;49.122;17.544;2023-12-20T09:59:29;12.93;;;11.63;;
79229;SDS011;68663;49.122;17.544;2023-12-20T10:01:55;13.02;;;11.27;;
79229;SDS011;68663;49.122;17.544;2023-12-20T10:04:22;14.15;;;10.90;;
79229;SDS011;68663;49.122;17.544;2023-12-20T10:06:47;16.83;;;11.90;;
79229;SDS011;68663;49.122;17.544;2023-12-20T10:09:13;12.52;;;11.13;;
79229;SDS011;68663;49.122;17.544;2023-12-20T10:11:39;13.15;;;11.70;;
79229;SDS011;68663;49.122;17.544;2023-12-20T10:14:05;11.35;;;10.13;;
79229;SDS011;68663;49.122;17.544;2023-12-20T10:16:32;14.02;;;11.68;;
79229;SDS011;68663;49.122;17.544;2023-12-20T10:18:58;14.73;;;11.88;;
79229;SDS011;68663;49.122;17.544;2023-12-20T10:21:26;11.88;;;10.63;;
79229;SDS011;68663;49.122;17.544;2023-12-20T10:23:55;14.52;;;10.88;;
79229;SDS011;68663;49.122;17.544;2023-12-20T10:26:22;13.07;;;11.02;;
79229;SDS011;68663;49.122;17.544;2023-12-20T10:29:01;15.50;;;12.02;;
79229;SDS011;68663;49.122;17.544;2023-12-20T10:31:33;12.40;;;11.10;;
79229;SDS011;68663;49.122;17.544;2023-12-20T10:34:00;12.40;;;10.82;;
79229;SDS011;68663;49.122;17.544;2023-12-20T10:36:31;12.05;;;10.60;;
79229;SDS011;68663;49.122;17.544;2023-12-20T10:38:58;13.90;;;11.35;;
79229;SDS011;68663;49.122;17.544;2023-12-20T10:41:28;15.77;;;11.00;;
79229;SDS011;68663;49.122;17.544;2023-12-20T10:43:58;11.80;;;10.60;;
79229;SDS011;68663;49.122;17.544;2023-12-20T10:46:26;11.35;;;10.15;;
79229;SDS011;68663;49.122;17.544;2023-12-20T10:48:53;11.13;;;9.93;;
79229;SDS011;68663;49.122;17.544;2023-12-20T10:51:20;13.55;;;10.55;;
79229;SDS011;68663;49.122;17.544;2023-12-20T10:53:49;12.05;;;10.70;;
79229;SDS011;68663;49.122;17.544;2023-12-20T10:56:18;12.70;;;10.25;;
79229;SDS011;68663;49.122;17.544;2023-12-20T10:58:44;11.35;;;10.15;;
79229;SDS011;68663;49.122;17.544;2023-12-20T11:01:12;12.48;;;9.85;;
79229;SDS011;68663;49.122;17.544;2023-12-20T11:03:39;11.18;;;9.93;;
79229;SDS011;68663;49.122;17.544;2023-12-20T11:06:26;11.90;;;9.88;;
79229;SDS011;68663;49.122;17.544;2023-12-20T11:14:40;12.27;;;10.48;;
79229;SDS011;68663;49.122;17.544;2023-12-20T11:17:10;11.70;;;9.75;;
79229;SDS011;68663;49.122;17.544;2023-12-20T11:22:20;11.48;;;9.75;;
79229;SDS011;68663;49.122;17.544;2023-12-20T11:24:47;10.65;;;9.55;;
79229;SDS011;68663;49.122;17.544;2023-12-20T11:27:13;10.15;;;8.90;;
79229;SDS011;68663;49.122;17.544;2023-12-20T11:29:40;11.50;;;9.55;;
79229;SDS011;68663;49.122;17.544;2023-12-20T11:32:48;11.35;;;8.93;;
79229;SDS011;68663;49.122;17.544;2023-12-20T11:34:55;10.57;;;9.27;;
79229;SDS011;68663;49.122;17.544;2023-12-20T11:37:21;10.68;;;9.57;;
79229;SDS011;68663;49.122;17.544;2023-12-20T11:39:56;9.77;;;8.77;;
79229;SDS011;68663;49.122;17.544;2023-12-20T11:42:26;10.07;;;8.95;;
79229;SDS011;68663;49.122;17.544;2023-12-20T11:44:52;10.55;;;9.48;;
79229;SDS011;68663;49.122;17.544;2023-12-20T11:47:18;10.23;;;9.18;;
79229;SDS011;68663;49.122;17.544;2023-12-20T11:49:46;10.52;;;9.38;;
79229;SDS011;68663;49.122;17.544;2023-12-20T11:52:13;10.40;;;8.43;;
79229;SDS011;68663;49.122;17.544;2023-12-20T11:54:39;9.95;;;8.88;;
79229;SDS011;68663;49.122;17.544;2023-12-20T11:57:04;10.73;;;8.95;;
79229;SDS011;68663;49.122;17.544;2023-12-20T11:59:30;10.40;;;9.30;;
79229;SDS011;68663;49.122;17.544;2023-12-20T12:01:56;10.15;;;9.05;;
79229;SDS011;68663;49.122;17.544;2023-12-20T12:04:25;11.38;;;8.93;;
79229;SDS011;68663;49.122;17.544;2023-12-20T12:06:51;9.65;;;8.40;;
79229;SDS011;68663;49.122;17.544;2023-12-20T12:09:17;9.63;;;8.65;;
79229;SDS011;68663;49.122;17.544;2023-12-20T12:11:42;8.93;;;8.02;;
79229;SDS011;68663;49.122;17.544;2023-12-20T12:14:08;9.23;;;7.90;;
79229;SDS011;68663;49.122;17.544;2023-12-20T12:16:34;8.48;;;7.68;;
79229;SDS011;68663;49.122;17.544;2023-12-20T12:18:59;9.57;;;8.57;;
79229;SDS011;68663;49.122;17.544;2023-12-20T12:21:25;9.30;;;8.30;;
79229;SDS011;68663;49.122;17.544;2023-12-20T12:23:51;9.80;;;8.13;;
79229;SDS011;68663;49.122;17.544;2023-12-20T12:26:16;11.07;;;8.70;;
79229;SDS011;68663;49.122;17.544;2023-12-20T12:28:42;9.00;;;8.13;;
79229;SDS011;68663;49.122;17.544;2023-12-20T12:31:08;10.23;;;7.78;;
79229;SDS011;68663;49.122;17.544;2023-12-20T12:33:34;9.25;;;8.25;;
79229;SDS011;68663;49.122;17.544;2023-12-20T12:36:02;8.70;;;7.88;;
79229;SDS011;68663;49.122;17.544;2023-12-20T12:38:30;9.43;;;8.43;;
79229;SDS011;68663;49.122;17.544;2023-12-20T12:40:55;8.32;;;7.47;;
79229;SDS011;68663;49.122;17.544;2023-12-20T12:43:21;9.88;;;8.40;;
79229;SDS011;68663;49.122;17.544;2023-12-20T12:45:48;8.45;;;7.60;;
79229;SDS011;68663;49.122;17.544;2023-12-20T12:48:14;9.73;;;8.73;;
79229;SDS011;68663;49.122;17.544;2023-12-20T12:50:40;9.05;;;7.88;;
79229;SDS011;68663;49.122;17.544;2023-12-20T12:53:05;8.95;;;8.05;;
79229;SDS011;68663;49.122;17.544;2023-12-20T12:55:31;8.95;;;7.80;;
79229;SDS011;68663;49.122;17.544;2023-12-20T12:57:56;8.55;;;7.53;;
79229;SDS011;68663;49.122;17.544;2023-12-20T13:00:22;7.95;;;7.15;;
79229;SDS011;68663;49.122;17.544;2023-12-20T13:02:47;7.53;;;6.80;;
79229;SDS011;68663;49.122;17.544;2023-12-20T13:05:13;8.43;;;7.57;;
79229;SDS011;68663;49.122;17.544;2023-12-20T13:07:38;8.85;;;7.63;;
79229;SDS011;68663;49.122;17.544;2023-12-20T13:10:04;8.27;;;7.40;;
79229;SDS011;68663;49.122;17.544;2023-12-20T13:12:31;8.60;;;6.63;;
79229;SDS011;68663;49.122;17.544;2023-12-20T13:14:57;7.95;;;6.70;;
79229;SDS011;68663;49.122;17.544;2023-12-20T13:17:23;8.70;;;6.85;;
79229;SDS011;68663;49.122;17.544;2023-12-20T13:19:48;10.02;;;6.88;;
79229;SDS011;68663;49.122;17.544;2023-12-20T13:22:14;8.05;;;7.25;;
79229;SDS011;68663;49.122;17.544;2023-12-20T13:24:40;8.85;;;7.22;;
79229;SDS011;68663;49.122;17.544;2023-12-20T13:27:05;13.17;;;7.13;;
79229;SDS011;68663;49.122;17.544;2023-12-20T13:29:31;7.93;;;7.05;;
79229;SDS011;68663;49.122;17.544;2023-12-20T13:31:56;7.28;;;6.40;;
79229;SDS011;68663;49.122;17.544;2023-12-20T13:34:22;7.60;;;6.80;;
79229;SDS011;68663;49.122;17.544;2023-12-20T13:36:48;6.93;;;6.22;;
79229;SDS011;68663;49.122;17.544;2023-12-20T13:39:15;7.40;;;6.60;;
79229;SDS011;68663;49.122;17.544;2023-12-20T13:41:42;8.98;;;6.70;;
79229;SDS011;68663;49.122;17.544;2023-12-20T13:44:07;7.57;;;6.78;;
79229;SDS011;68663;49.122;17.544;2023-12-20T13:46:33;7.20;;;6.50;;
79229;SDS011;68663;49.122;17.544;2023-12-20T13:48:58;8.88;;;6.82;;
79229;SDS011;68663;49.122;17.544;2023-12-20T13:51:24;6.75;;;5.95;;
79229;SDS011;68663;49.122;17.544;2023-12-20T13:53:50;7.55;;;6.75;;
79229;SDS011;68663;49.122;17.544;2023-12-20T13:56:15;7.47;;;6.20;;
79229;SDS011;68663;49.122;17.544;2023-12-20T13:58:41;7.72;;;6.82;;
79229;SDS011;68663;49.122;17.544;2023-12-20T14:01:07;8.57;;;7.15;;
79229;SDS011;68663;49.122;17.544;2023-12-20T14:03:33;7.13;;;6.43;;
79229;SDS011;68663;49.122;17.544;2023-12-20T14:05:59;7.75;;;6.28;;
79229;SDS011;68663;49.122;17.544;2023-12-20T14:08:26;7.32;;;6.53;;
79229;SDS011;68663;49.122;17.544;2023-12-20T14:10:52;7.93;;;6.50;;